Aviation Digital Data Service (ADDS)

Output produced by METARs form (1433 UTC 23 January 2019)
found at http://www.aviationweather.gov/metar/data/
 
METAR text: AGGH 231400Z 00000KT 9999 -SH SCT015 FEW016CB SCT027 BKN300 26/25 Q1008
Conditions at: AGGH (HONIARA/HENDERSO, SB) observed 1400 UTC 23 January 2019
Temperature: 26.0°C (79°F)
Dewpoint: 25.0°C (77°F) [RH = 94%]
Pressure (altimeter): 29.76 inches Hg (1008.0 mb)
Winds: calm
Visibility: 6 or more miles (10+ km)
Ceiling: 30000 feet AGL
Clouds: scattered clouds at 1500 feet AGL
few clouds at 1600 feet AGL
scattered clouds at 2700 feet AGL
broken clouds at 30000 feet AGL
Weather: -SH  (unknown weather)

METAR text: AGGH 231300Z 00000KT 9999 FEW016 FEW017CB BKN300 26/25 Q1008
Conditions at: AGGH (HONIARA/HENDERSO, SB) observed 1300 UTC 23 January 2019
Temperature: 26.0°C (79°F)
Dewpoint: 25.0°C (77°F) [RH = 94%]
Pressure (altimeter): 29.76 inches Hg (1008.0 mb)
Winds: calm
Visibility: 6 or more miles (10+ km)
Ceiling: 30000 feet AGL
Clouds: few clouds at 1600 feet AGL
few clouds at 1700 feet AGL
broken clouds at 30000 feet AGL
Weather: no significant weather observed at this time

METAR text: AGGH 231200Z METAR
Conditions at: AGGH (HONIARA/HENDERSO, SB) observed 1200 UTC 23 January 2019
Temperature: missing
Dewpoint: missing
Pressure (altimeter): missing
Winds: missing
Visibility: missing
Ceiling: unknown
Clouds: missing
Weather: no significant weather observed at this time

METAR text: AGGH 231100Z 20002KT 9999 FEW017 FEW018CB BKN300 27/26 Q1008
Conditions at: AGGH (HONIARA/HENDERSO, SB) observed 1100 UTC 23 January 2019
Temperature: 27.0°C (81°F)
Dewpoint: 26.0°C (79°F) [RH = 94%]
Pressure (altimeter): 29.76 inches Hg (1008.0 mb)
Winds: from the SSW (200 degrees) at 2 MPH (2 knots; 1.0 m/s)
Visibility: 6 or more miles (10+ km)
Ceiling: 30000 feet AGL
Clouds: few clouds at 1700 feet AGL
few clouds at 1800 feet AGL
broken clouds at 30000 feet AGL
Weather: no significant weather observed at this time

METAR text: AGGH 231000Z METAR
Conditions at: AGGH (HONIARA/HENDERSO, SB) observed 1000 UTC 23 January 2019
Temperature: missing
Dewpoint: missing
Pressure (altimeter): missing
Winds: missing
Visibility: missing
Ceiling: unknown
Clouds: missing
Weather: no significant weather observed at this time

METAR text: AGGH 230900Z 32005KT 9999 FEW018 FEW019CB SCT029 28/27 Q1007
Conditions at: AGGH (HONIARA/HENDERSO, SB) observed 0900 UTC 23 January 2019
Temperature: 28.0°C (82°F)
Dewpoint: 27.0°C (81°F) [RH = 94%]
Pressure (altimeter): 29.73 inches Hg (1007.0 mb)
Winds: from the NW (320 degrees) at 6 MPH (5 knots; 2.6 m/s)
Visibility: 6 or more miles (10+ km)
Ceiling: at least 12,000 feet AGL
Clouds: few clouds at 1800 feet AGL
few clouds at 1900 feet AGL
scattered clouds at 2900 feet AGL
Weather: no significant weather observed at this time

METAR text: AGGH 230800Z 32006KT 9999 HZ SCT018 FEW019CB BKN300 28/26 Q1007
Conditions at: AGGH (HONIARA/HENDERSO, SB) observed 0800 UTC 23 January 2019
Temperature: 28.0°C (82°F)
Dewpoint: 26.0°C (79°F) [RH = 89%]
Pressure (altimeter): 29.73 inches Hg (1007.0 mb)
Winds: from the NW (320 degrees) at 7 MPH (6 knots; 3.1 m/s)
Visibility: 6 or more miles (10+ km)
Ceiling: 30000 feet AGL
Clouds: scattered clouds at 1800 feet AGL
few clouds at 1900 feet AGL
broken clouds at 30000 feet AGL
Weather: HZ  (haze)

METAR text: AGGH 230700Z 32005KT 9999 HZ FEW019 FEW020CB BKN300 30/26 Q1006
Conditions at: AGGH (HONIARA/HENDERSO, SB) observed 0700 UTC 23 January 2019
Temperature: 30.0°C (86°F)
Dewpoint: 26.0°C (79°F) [RH = 79%]
Pressure (altimeter): 29.70 inches Hg (1006.0 mb)
Winds: from the NW (320 degrees) at 6 MPH (5 knots; 2.6 m/s)
Visibility: 6 or more miles (10+ km)
Ceiling: 30000 feet AGL
Clouds: few clouds at 1900 feet AGL
few clouds at 2000 feet AGL
broken clouds at 30000 feet AGL
Weather: HZ  (haze)

METAR text: AGGH 230600Z 32005KT 9999 HZ FEW019 FEW020CB BKN300 31/25 Q1006
Conditions at: AGGH (HONIARA/HENDERSO, SB) observed 0600 UTC 23 January 2019
Temperature: 31.0°C (88°F)
Dewpoint: 25.0°C (77°F) [RH = 71%]
Pressure (altimeter): 29.70 inches Hg (1006.0 mb)
Winds: from the NW (320 degrees) at 6 MPH (5 knots; 2.6 m/s)
Visibility: 6 or more miles (10+ km)
Ceiling: 30000 feet AGL
Clouds: few clouds at 1900 feet AGL
few clouds at 2000 feet AGL
broken clouds at 30000 feet AGL
Weather: HZ  (haze)

METAR text: AGGH 230500Z 29005KT 9999 HZ FEW020 FEW020CB BKN300 32/26 Q1004
Conditions at: AGGH (HONIARA/HENDERSO, SB) observed 0500 UTC 23 January 2019
Temperature: 32.0°C (90°F)
Dewpoint: 26.0°C (79°F) [RH = 71%]
Pressure (altimeter): 29.65 inches Hg (1004.0 mb)
Winds: from the WNW (290 degrees) at 6 MPH (5 knots; 2.6 m/s)
Visibility: 6 or more miles (10+ km)
Ceiling: 30000 feet AGL
Clouds: few clouds at 2000 feet AGL
few clouds at 2000 feet AGL
broken clouds at 30000 feet AGL
Weather: HZ  (haze)

METAR text: AGGH 230400Z 36006KT 9999 HZ FEW020 FEW020CB BKN300 32/26 Q1005
Conditions at: AGGH (HONIARA/HENDERSO, SB) observed 0400 UTC 23 January 2019
Temperature: 32.0°C (90°F)
Dewpoint: 26.0°C (79°F) [RH = 71%]
Pressure (altimeter): 29.68 inches Hg (1005.0 mb)
Winds: from the N (360 degrees) at 7 MPH (6 knots; 3.1 m/s)
Visibility: 6 or more miles (10+ km)
Ceiling: 30000 feet AGL
Clouds: few clouds at 2000 feet AGL
few clouds at 2000 feet AGL
broken clouds at 30000 feet AGL
Weather: HZ  (haze)

METAR text: AGGH 230200Z 02007KT 9999 FEW020 BKN300 32/26 Q1006
Conditions at: AGGH (HONIARA/HENDERSO, SB) observed 0200 UTC 23 January 2019
Temperature: 32.0°C (90°F)
Dewpoint: 26.0°C (79°F) [RH = 71%]
Pressure (altimeter): 29.70 inches Hg (1006.0 mb)
Winds: from the NNE (20 degrees) at 8 MPH (7 knots; 3.6 m/s)
Visibility: 6 or more miles (10+ km)
Ceiling: 30000 feet AGL
Clouds: few clouds at 2000 feet AGL
broken clouds at 30000 feet AGL
Weather: no significant weather observed at this time

METAR text: AGGH 230100Z 05005KT 9999 FEW020 BKN300 32/27 Q1006
Conditions at: AGGH (HONIARA/HENDERSO, SB) observed 0100 UTC 23 January 2019
Temperature: 32.0°C (90°F)
Dewpoint: 27.0°C (81°F) [RH = 75%]
Pressure (altimeter): 29.70 inches Hg (1006.0 mb)
Winds: from the NE (50 degrees) at 6 MPH (5 knots; 2.6 m/s)
Visibility: 6 or more miles (10+ km)
Ceiling: 30000 feet AGL
Clouds: few clouds at 2000 feet AGL
broken clouds at 30000 feet AGL
Weather: no significant weather observed at this time

METAR text: AGGH 230030Z 34009KT 9999 HZ FEW020 BKN300 32/25 Q1006
Conditions at: AGGH (HONIARA/HENDERSO, SB) observed 0030 UTC 23 January 2019
Temperature: 32.0°C (90°F)
Dewpoint: 25.0°C (77°F) [RH = 67%]
Pressure (altimeter): 29.70 inches Hg (1006.0 mb)
Winds: from the NNW (340 degrees) at 10 MPH (9 knots; 4.6 m/s)
Visibility: 6 or more miles (10+ km)
Ceiling: 30000 feet AGL
Clouds: few clouds at 2000 feet AGL
broken clouds at 30000 feet AGL
Weather: HZ  (haze)

METAR text: AGGH 230000Z METAR
Conditions at: AGGH (HONIARA/HENDERSO, SB) observed 0000 UTC 23 January 2019
Temperature: missing
Dewpoint: missing
Pressure (altimeter): missing
Winds: missing
Visibility: missing
Ceiling: unknown
Clouds: missing
Weather: no significant weather observed at this time

METAR text: AGGH 222300Z METAR
Conditions at: AGGH (HONIARA/HENDERSO, SB) observed 2300 UTC 22 January 2019
Temperature: missing
Dewpoint: missing
Pressure (altimeter): missing
Winds: missing
Visibility: missing
Ceiling: unknown
Clouds: missing
Weather: no significant weather observed at this time

METAR text: AGGH 222200Z 00000KT 9999 HZ FEW020 SCT300 30/26 Q1007
Conditions at: AGGH (HONIARA/HENDERSO, SB) observed 2200 UTC 22 January 2019
Temperature: 30.0°C (86°F)
Dewpoint: 26.0°C (79°F) [RH = 79%]
Pressure (altimeter): 29.73 inches Hg (1007.0 mb)
Winds: calm
Visibility: 6 or more miles (10+ km)
Ceiling: at least 12,000 feet AGL
Clouds: few clouds at 2000 feet AGL
scattered clouds at 30000 feet AGL
Weather: HZ  (haze)

METAR text: AGGH 222030Z 18002KT FEW014 SCT300 26/25 Q1007
Conditions at: AGGH (HONIARA/HENDERSO, SB) observed 2030 UTC 22 January 2019
Temperature: 26.0°C (79°F)
Dewpoint: 25.0°C (77°F) [RH = 94%]
Pressure (altimeter): 29.73 inches Hg (1007.0 mb)
Winds: from the S (180 degrees) at 2 MPH (2 knots; 1.0 m/s)
Visibility: missing
Ceiling: at least 12,000 feet AGL
Clouds: few clouds at 1400 feet AGL
scattered clouds at 30000 feet AGL
Weather: no significant weather observed at this time

METAR text: AGGH 222000Z 00000KT 9999 FEW014 SCT300 25/25 Q1006
Conditions at: AGGH (HONIARA/HENDERSO, SB) observed 2000 UTC 22 January 2019
Temperature: 25.0°C (77°F)
Dewpoint: 25.0°C (77°F) [RH = 100%]
Pressure (altimeter): 29.70 inches Hg (1006.0 mb)
Winds: calm
Visibility: 6 or more miles (10+ km)
Ceiling: at least 12,000 feet AGL
Clouds: few clouds at 1400 feet AGL
scattered clouds at 30000 feet AGL
Weather: no significant weather observed at this time

METAR text: AGGH 221900Z 18002KT 9999 FEW013 SCT300 24/24 Q1006
Conditions at: AGGH (HONIARA/HENDERSO, SB) observed 1900 UTC 22 January 2019
Temperature: 24.0°C (75°F)
Dewpoint: 24.0°C (75°F) [RH = 100%]
Pressure (altimeter): 29.70 inches Hg (1006.0 mb)
Winds: from the S (180 degrees) at 2 MPH (2 knots; 1.0 m/s)
Visibility: 6 or more miles (10+ km)
Ceiling: at least 12,000 feet AGL
Clouds: few clouds at 1300 feet AGL
scattered clouds at 30000 feet AGL
Weather: no significant weather observed at this time

METAR text: AGGH 221800Z 14002KT 9999 FEW013 SCT300 24/23 Q1005
Conditions at: AGGH (HONIARA/HENDERSO, SB) observed 1800 UTC 22 January 2019
Temperature: 24.0°C (75°F)
Dewpoint: 23.0°C (73°F) [RH = 94%]
Pressure (altimeter): 29.68 inches Hg (1005.0 mb)
Winds: from the SE (140 degrees) at 2 MPH (2 knots; 1.0 m/s)
Visibility: 6 or more miles (10+ km)
Ceiling: at least 12,000 feet AGL
Clouds: few clouds at 1300 feet AGL
scattered clouds at 30000 feet AGL
Weather: no significant weather observed at this time

METAR text: AGGH 221700Z 16002KT 9999 FEW013 24/24 Q1006
Conditions at: AGGH (HONIARA/HENDERSO, SB) observed 1700 UTC 22 January 2019
Temperature: 24.0°C (75°F)
Dewpoint: 24.0°C (75°F) [RH = 100%]
Pressure (altimeter): 29.70 inches Hg (1006.0 mb)
Winds: from the SSE (160 degrees) at 2 MPH (2 knots; 1.0 m/s)
Visibility: 6 or more miles (10+ km)
Ceiling: at least 12,000 feet AGL
Clouds: few clouds at 1300 feet AGL
Weather: no significant weather observed at this time

METAR text: AGGH 221600Z 16002KT 9999 HZ SCT013 24/24 Q1006
Conditions at: AGGH (HONIARA/HENDERSO, SB) observed 1600 UTC 22 January 2019
Temperature: 24.0°C (75°F)
Dewpoint: 24.0°C (75°F) [RH = 100%]
Pressure (altimeter): 29.70 inches Hg (1006.0 mb)
Winds: from the SSE (160 degrees) at 2 MPH (2 knots; 1.0 m/s)
Visibility: 6 or more miles (10+ km)
Ceiling: at least 12,000 feet AGL
Clouds: scattered clouds at 1300 feet AGL
Weather: HZ  (haze)

METAR text: AGGH 221500Z 20002KT 9999 FEW013 FEW014CB SCT100 25/24 Q1007
Conditions at: AGGH (HONIARA/HENDERSO, SB) observed 1500 UTC 22 January 2019
Temperature: 25.0°C (77°F)
Dewpoint: 24.0°C (75°F) [RH = 94%]
Pressure (altimeter): 29.73 inches Hg (1007.0 mb)
Winds: from the SSW (200 degrees) at 2 MPH (2 knots; 1.0 m/s)
Visibility: 6 or more miles (10+ km)
Ceiling: at least 12,000 feet AGL
Clouds: few clouds at 1300 feet AGL
few clouds at 1400 feet AGL
scattered clouds at 10000 feet AGL
Weather: no significant weather observed at this time

METAR text: AGGH 221400Z 16002KT 9999 HZ FEW013 FEW014CB SCT300 24/24 Q1008
Conditions at: AGGH (HONIARA/HENDERSO, SB) observed 1400 UTC 22 January 2019
Temperature: 24.0°C (75°F)
Dewpoint: 24.0°C (75°F) [RH = 100%]
Pressure (altimeter): 29.76 inches Hg (1008.0 mb)
Winds: from the SSE (160 degrees) at 2 MPH (2 knots; 1.0 m/s)
Visibility: 6 or more miles (10+ km)
Ceiling: at least 12,000 feet AGL
Clouds: few clouds at 1300 feet AGL
few clouds at 1400 feet AGL
scattered clouds at 30000 feet AGL
Weather: HZ  (haze)

METAR text: AGGH 221300Z 18002KT 9999 HZ FEW014 FEW015CB BKN300 24/24 Q1009
Conditions at: AGGH (HONIARA/HENDERSO, SB) observed 1300 UTC 22 January 2019
Temperature: 24.0°C (75°F)
Dewpoint: 24.0°C (75°F) [RH = 100%]
Pressure (altimeter): 29.79 inches Hg (1009.0 mb)
Winds: from the S (180 degrees) at 2 MPH (2 knots; 1.0 m/s)
Visibility: 6 or more miles (10+ km)
Ceiling: 30000 feet AGL
Clouds: few clouds at 1400 feet AGL
few clouds at 1500 feet AGL
broken clouds at 30000 feet AGL
Weather: HZ  (haze)

METAR text: AGGH 221200Z 14002KT 9999 FEW015 FEW016CB BKN300 24/24 Q1009
Conditions at: AGGH (HONIARA/HENDERSO, SB) observed 1200 UTC 22 January 2019
Temperature: 24.0°C (75°F)
Dewpoint: 24.0°C (75°F) [RH = 100%]
Pressure (altimeter): 29.79 inches Hg (1009.0 mb)
Winds: from the SE (140 degrees) at 2 MPH (2 knots; 1.0 m/s)
Visibility: 6 or more miles (10+ km)
Ceiling: 30000 feet AGL
Clouds: few clouds at 1500 feet AGL
few clouds at 1600 feet AGL
broken clouds at 30000 feet AGL
Weather: no significant weather observed at this time

METAR text: AGGH 221100Z 18002KT 9999 FEW015 FEW016CB SCT026 BKN300 24/24 Q1008
Conditions at: AGGH (HONIARA/HENDERSO, SB) observed 1100 UTC 22 January 2019
Temperature: 24.0°C (75°F)
Dewpoint: 24.0°C (75°F) [RH = 100%]
Pressure (altimeter): 29.76 inches Hg (1008.0 mb)
Winds: from the S (180 degrees) at 2 MPH (2 knots; 1.0 m/s)
Visibility: 6 or more miles (10+ km)
Ceiling: 30000 feet AGL
Clouds: few clouds at 1500 feet AGL
few clouds at 1600 feet AGL
scattered clouds at 2600 feet AGL
broken clouds at 30000 feet AGL
Weather: no significant weather observed at this time

METAR text: AGGH 221000Z 11002KT 9999 FEW015 FEW016CB SCT026 BKN300 25/25 Q1008
Conditions at: AGGH (HONIARA/HENDERSO, SB) observed 1000 UTC 22 January 2019
Temperature: 25.0°C (77°F)
Dewpoint: 25.0°C (77°F) [RH = 100%]
Pressure (altimeter): 29.76 inches Hg (1008.0 mb)
Winds: from the ESE (110 degrees) at 2 MPH (2 knots; 1.0 m/s)
Visibility: 6 or more miles (10+ km)
Ceiling: 30000 feet AGL
Clouds: few clouds at 1500 feet AGL
few clouds at 1600 feet AGL
scattered clouds at 2600 feet AGL
broken clouds at 30000 feet AGL
Weather: no significant weather observed at this time

METAR text: AGGH 220900Z 14004KT 9999 FEW015 FEW016CB SCT026 BKN300 25/24 Q1008
Conditions at: AGGH (HONIARA/HENDERSO, SB) observed 0900 UTC 22 January 2019
Temperature: 25.0°C (77°F)
Dewpoint: 24.0°C (75°F) [RH = 94%]
Pressure (altimeter): 29.76 inches Hg (1008.0 mb)
Winds: from the SE (140 degrees) at 5 MPH (4 knots; 2.1 m/s)
Visibility: 6 or more miles (10+ km)
Ceiling: 30000 feet AGL
Clouds: few clouds at 1500 feet AGL
few clouds at 1600 feet AGL
scattered clouds at 2600 feet AGL
broken clouds at 30000 feet AGL
Weather: no significant weather observed at this time

METAR text: AGGH 220800Z 18004KT 9999 -DZ FEW015 FEW016CB SCT026 24/24 Q1007
Conditions at: AGGH (HONIARA/HENDERSO, SB) observed 0800 UTC 22 January 2019
Temperature: 24.0°C (75°F)
Dewpoint: 24.0°C (75°F) [RH = 100%]
Pressure (altimeter): 29.73 inches Hg (1007.0 mb)
Winds: from the S (180 degrees) at 5 MPH (4 knots; 2.1 m/s)
Visibility: 6 or more miles (10+ km)
Ceiling: at least 12,000 feet AGL
Clouds: few clouds at 1500 feet AGL
few clouds at 1600 feet AGL
scattered clouds at 2600 feet AGL
Weather: -DZ  (light drizzle)

METAR text: AGGH 220730Z 14003KT 9999 -DZ FEW015 FEW016CB SCT026 24/24 Q1007
Conditions at: AGGH (HONIARA/HENDERSO, SB) observed 0730 UTC 22 January 2019
Temperature: 24.0°C (75°F)
Dewpoint: 24.0°C (75°F) [RH = 100%]
Pressure (altimeter): 29.73 inches Hg (1007.0 mb)
Winds: from the SE (140 degrees) at 3 MPH (3 knots; 1.5 m/s)
Visibility: 6 or more miles (10+ km)
Ceiling: at least 12,000 feet AGL
Clouds: few clouds at 1500 feet AGL
few clouds at 1600 feet AGL
scattered clouds at 2600 feet AGL
Weather: -DZ  (light drizzle)

METAR text: AGGH 220700Z 20002KT 9999 -TS FEW015 FEW016CB BKN026 24/24 Q1007
Conditions at: AGGH (HONIARA/HENDERSO, SB) observed 0700 UTC 22 January 2019
Temperature: 24.0°C (75°F)
Dewpoint: 24.0°C (75°F) [RH = 100%]
Pressure (altimeter): 29.73 inches Hg (1007.0 mb)
Winds: from the SSW (200 degrees) at 2 MPH (2 knots; 1.0 m/s)
Visibility: 6 or more miles (10+ km)
Ceiling: 2600 feet AGL
Clouds: few clouds at 1500 feet AGL
few clouds at 1600 feet AGL
broken clouds at 2600 feet AGL
Weather: -TS  (unknown weather)

METAR text: AGGH 220645Z 14005KT 9999 TSSH SCT015 FEW016CB BKN026 24/24 Q1006
Conditions at: AGGH (HONIARA/HENDERSO, SB) observed 0645 UTC 22 January 2019
Temperature: 24.0°C (75°F)
Dewpoint: 24.0°C (75°F) [RH = 100%]
Pressure (altimeter): 29.70 inches Hg (1006.0 mb)
Winds: from the SE (140 degrees) at 6 MPH (5 knots; 2.6 m/s)
Visibility: 6 or more miles (10+ km)
Ceiling: 2600 feet AGL
Clouds: scattered clouds at 1500 feet AGL
few clouds at 1600 feet AGL
broken clouds at 2600 feet AGL
Weather: SH TS  (showers, thunderstorm)

METAR text: AGGH 220630Z 09011KT 500M TSSH SCT016 FEW016CB BKN026 25/25 Q1006
Conditions at: AGGH (HONIARA/HENDERSO, SB) observed 0630 UTC 22 January 2019
Temperature: 25.0°C (77°F)
Dewpoint: 25.0°C (77°F) [RH = 100%]
Pressure (altimeter): 29.70 inches Hg (1006.0 mb)
Winds: from the E (90 degrees) at 13 MPH (11 knots; 5.7 m/s)
Visibility: missing
Ceiling: 2600 feet AGL
Clouds: scattered clouds at 1600 feet AGL
few clouds at 1600 feet AGL
broken clouds at 2600 feet AGL
Weather: SH TS  (showers, thunderstorm)

METAR text: AGGH 220615Z 16008KT 500M +RASH SCT016 FEW017CB BKN026 25/25 Q1006
Conditions at: AGGH (HONIARA/HENDERSO, SB) observed 0615 UTC 22 January 2019
Temperature: 25.0°C (77°F)
Dewpoint: 25.0°C (77°F) [RH = 100%]
Pressure (altimeter): 29.70 inches Hg (1006.0 mb)
Winds: from the SSE (160 degrees) at 9 MPH (8 knots; 4.1 m/s)
Visibility: missing
Ceiling: 2600 feet AGL
Clouds: scattered clouds at 1600 feet AGL
few clouds at 1700 feet AGL
broken clouds at 2600 feet AGL
Weather: SH +RA  (showers, heavy rain)

METAR text: AGGH 220600Z 16010KT 1000M +SH SCT016 FEW017CB BKN026 26/25 Q1006
Conditions at: AGGH (HONIARA/HENDERSO, SB) observed 0600 UTC 22 January 2019
Temperature: 26.0°C (79°F)
Dewpoint: 25.0°C (77°F) [RH = 94%]
Pressure (altimeter): 29.70 inches Hg (1006.0 mb)
Winds: from the SSE (160 degrees) at 12 MPH (10 knots; 5.1 m/s)
Visibility: 0.62 miles (1.00 km)
Ceiling: 2600 feet AGL
Clouds: scattered clouds at 1600 feet AGL
few clouds at 1700 feet AGL
broken clouds at 2600 feet AGL
Weather: +SH  (unknown weather)

METAR text: AGGH 220545Z 14009KT 9999 -TS SCT016 FEW017CB BKN026 29/25 Q1006
Conditions at: AGGH (HONIARA/HENDERSO, SB) observed 0545 UTC 22 January 2019
Temperature: 29.0°C (84°F)
Dewpoint: 25.0°C (77°F) [RH = 79%]
Pressure (altimeter): 29.70 inches Hg (1006.0 mb)
Winds: from the SE (140 degrees) at 10 MPH (9 knots; 4.6 m/s)
Visibility: 6 or more miles (10+ km)
Ceiling: 2600 feet AGL
Clouds: scattered clouds at 1600 feet AGL
few clouds at 1700 feet AGL
broken clouds at 2600 feet AGL
Weather: -TS  (unknown weather)

METAR text: AGGH 220500Z 36007KT 9999 FEW017 FEW021CB SCT030 30/26 Q1005
Conditions at: AGGH (HONIARA/HENDERSO, SB) observed 0500 UTC 22 January 2019
Temperature: 30.0°C (86°F)
Dewpoint: 26.0°C (79°F) [RH = 79%]
Pressure (altimeter): 29.68 inches Hg (1005.0 mb)
Winds: from the N (360 degrees) at 8 MPH (7 knots; 3.6 m/s)
Visibility: 6 or more miles (10+ km)
Ceiling: at least 12,000 feet AGL
Clouds: few clouds at 1700 feet AGL
few clouds at 2100 feet AGL
scattered clouds at 3000 feet AGL
Weather: no significant weather observed at this time

METAR text: AGGH 220400Z 32010KT 9999 FEW019 FEW021 SCT300 32/27 Q1005
Conditions at: AGGH (HONIARA/HENDERSO, SB) observed 0400 UTC 22 January 2019
Temperature: 32.0°C (90°F)
Dewpoint: 27.0°C (81°F) [RH = 75%]
Pressure (altimeter): 29.68 inches Hg (1005.0 mb)
Winds: from the NW (320 degrees) at 12 MPH (10 knots; 5.1 m/s)
Visibility: 6 or more miles (10+ km)
Ceiling: at least 12,000 feet AGL
Clouds: few clouds at 1900 feet AGL
few clouds at 2100 feet AGL
scattered clouds at 30000 feet AGL
Weather: no significant weather observed at this time

METAR text: AGGH 220300Z 36006KT 9999 HZ FEW020 1CB021 SCT300 32/26 Q1005
Conditions at: AGGH (HONIARA/HENDERSO, SB) observed 0300 UTC 22 January 2019
Temperature: 32.0°C (90°F)
Dewpoint: 26.0°C (79°F) [RH = 71%]
Pressure (altimeter): 29.68 inches Hg (1005.0 mb)
Winds: from the N (360 degrees) at 7 MPH (6 knots; 3.1 m/s)
Visibility: 6 or more miles (10+ km)
Ceiling: at least 12,000 feet AGL
Clouds: few clouds at 2000 feet AGL
scattered clouds at 30000 feet AGL
Weather: HZ  (haze)

Forecast for: AGGH (HONIARA/HENDERSO, SB)
Text: TAF AGGH 231125Z 2312/2412 VRB03KT 9999 FEW016 SCT027 T 26 25 24 27 Q 1008 1006 1005 1007
Forecast period: 1200 UTC 23 January 2019 to 1200 UTC 24 January 2019
Forecast type: FROM: standard forecast or significant change
Winds: variable direction winds at 3 MPH (3 knots; 1.5 m/s)
Visibility: 6 or more miles 10+ km)
Ceiling: at least 12,000 feet AGL
Clouds: few clouds at 1600 feet AGL
scattered clouds at 2700 feet AGL
Weather: no significant weather forecast for this period